Аэропорт: Талаги. Архангельск

ICAO: ULAA

METAR:
2024-04-22 21:00:00
ULAA 222100Z 11009MPS 9999 FEW030 02/M07 Q1023 R08/910565 NOSIG RMK QFE766/1022
TAF:
2024-04-22 20:00:00
TAF ULAA 222000Z 2221/2321 09006G12MPS 9999 BKN016 
  TEMPO 2221/2224 10009G16MPS 6000 -SHSNRA FEW006 BKN016CB 
  FM230000 10007G12MPS 6000 BKN016 
  TEMPO 2300/2306 09008G16MPS 2000 SHSN BKN005 BKN011CB 
  BECMG 2306/2309 12005G12MPS